createdAt,value
2023-05-17T00:00:10.422Z,94.95
2023-05-17T00:02:55.835Z,94.82
2023-05-17T00:05:40.908Z,95.67
2023-05-17T00:08:25.992Z,96.29
2023-05-17T00:11:11.074Z,96.56
2023-05-17T00:13:56.203Z,97.15
2023-05-17T00:16:41.087Z,97.22
2023-05-17T00:19:26.288Z,97.16
2023-05-17T00:22:11.724Z,97.61
2023-05-17T00:24:56.829Z,98.03
2023-05-17T00:27:41.790Z,98.19
2023-05-17T00:30:26.981Z,98.11
2023-05-17T00:33:12.101Z,98.08
2023-05-17T00:35:57.049Z,97.93
2023-05-17T00:38:42.281Z,98.39
2023-05-17T00:41:27.485Z,99.42
2023-05-17T00:44:12.525Z,100.00
2023-05-17T00:46:59.694Z,100.00
2023-05-17T00:49:46.101Z,99.69
2023-05-17T00:52:31.259Z,99.17
2023-05-17T00:55:16.580Z,99.31
2023-05-17T00:58:01.904Z,99.38
2023-05-17T01:00:47.386Z,99.28
2023-05-17T01:03:32.958Z,99.86
2023-05-17T01:06:18.335Z,100.00
2023-05-17T01:09:05.040Z,100.00
2023-05-17T01:12:18.839Z,100.00
2023-05-17T01:15:19.731Z,99.99
2023-05-17T01:18:23.855Z,100.00
2023-05-17T01:21:37.496Z,100.00
2023-05-17T01:24:26.418Z,100.00
2023-05-17T01:27:14.603Z,100.00
2023-05-17T01:30:02.378Z,100.00
2023-05-17T01:32:47.511Z,100.00
2023-05-17T01:35:32.746Z,100.00
2023-05-17T01:38:17.680Z,100.00
2023-05-17T01:41:14.324Z,100.00
2023-05-17T01:44:09.001Z,100.00
2023-05-17T01:47:12.013Z,100.00
2023-05-17T01:50:00.314Z,100.00
2023-05-17T01:52:51.385Z,100.00
2023-05-17T01:55:56.177Z,100.00
2023-05-17T01:58:48.782Z,100.00
2023-05-17T02:01:35.876Z,100.00
2023-05-17T02:04:21.471Z,100.00
2023-05-17T02:07:06.922Z,100.00
2023-05-17T02:09:52.271Z,100.00
2023-05-17T02:12:37.322Z,100.00
2023-05-17T02:15:22.586Z,100.00
2023-05-17T02:18:07.553Z,100.00
2023-05-17T02:20:53.299Z,100.00
2023-05-17T02:23:38.079Z,100.00
2023-05-17T02:26:22.924Z,100.00
2023-05-17T02:29:07.841Z,100.00
2023-05-17T02:31:52.757Z,100.00
2023-05-17T02:34:37.976Z,100.00
2023-05-17T02:37:22.903Z,100.00
2023-05-17T02:40:09.753Z,100.00
2023-05-17T02:42:55.000Z,100.00
2023-05-17T02:45:39.937Z,100.00
2023-05-17T02:48:25.035Z,100.00
2023-05-17T02:51:10.962Z,100.00
2023-05-17T02:53:55.993Z,100.00
2023-05-17T02:56:41.240Z,100.00
2023-05-17T02:59:26.258Z,100.00
2023-05-17T03:02:11.492Z,100.00
2023-05-17T03:04:56.648Z,100.00
2023-05-17T03:07:41.637Z,100.00
2023-05-17T03:10:26.534Z,100.00
2023-05-17T03:13:11.651Z,100.00
2023-05-17T03:15:56.582Z,100.00
2023-05-17T03:18:41.996Z,100.00
2023-05-17T03:21:27.218Z,100.00
2023-05-17T03:24:12.180Z,100.00
2023-05-17T03:26:57.169Z,100.00
2023-05-17T03:29:42.227Z,100.00
2023-05-17T03:32:27.377Z,100.00
2023-05-17T03:35:12.475Z,100.00
2023-05-17T03:37:57.507Z,100.00
2023-05-17T03:40:42.693Z,100.00
2023-05-17T03:43:28.746Z,100.00
2023-05-17T03:46:14.550Z,100.00
2023-05-17T03:48:59.678Z,100.00
2023-05-17T03:51:45.189Z,100.00
2023-05-17T03:54:30.691Z,100.00
2023-05-17T03:57:15.879Z,100.00
2023-05-17T04:00:00.906Z,100.00
2023-05-17T04:02:45.975Z,100.00
2023-05-17T04:05:31.184Z,100.00
2023-05-17T04:08:16.657Z,100.00
2023-05-17T04:11:10.557Z,100.00
2023-05-17T04:13:56.881Z,100.00
2023-05-17T04:16:42.018Z,100.00
2023-05-17T04:19:27.062Z,100.00
2023-05-17T04:22:12.632Z,100.00
2023-05-17T04:24:57.721Z,100.00
2023-05-17T04:27:42.732Z,100.00
2023-05-17T04:30:27.642Z,100.00
2023-05-17T04:33:14.238Z,100.00
2023-05-17T04:35:59.673Z,100.00
2023-05-17T04:38:44.739Z,100.00
2023-05-17T04:41:31.368Z,100.00
2023-05-17T04:44:17.139Z,100.00
2023-05-17T04:47:03.844Z,100.00
2023-05-17T04:49:48.811Z,100.00
2023-05-17T04:52:33.583Z,100.00
2023-05-17T04:55:18.646Z,100.00
2023-05-17T04:58:03.548Z,100.00
2023-05-17T05:00:48.475Z,100.00
2023-05-17T05:03:33.495Z,100.00
2023-05-17T05:06:18.806Z,100.00
2023-05-17T05:09:04.303Z,100.00
2023-05-17T05:11:49.582Z,100.00
2023-05-17T05:14:35.045Z,100.00
2023-05-17T05:17:20.048Z,100.00
2023-05-17T05:20:06.599Z,100.00
2023-05-17T05:22:52.005Z,100.00
2023-05-17T05:25:37.671Z,100.00
2023-05-17T05:28:22.602Z,100.00
2023-05-17T05:31:07.450Z,100.00
2023-05-17T05:33:52.718Z,100.00
2023-05-17T05:36:37.817Z,100.00
2023-05-17T05:39:22.942Z,100.00
2023-05-17T05:42:08.373Z,100.00
2023-05-17T05:44:53.600Z,100.00
2023-05-17T05:47:38.648Z,100.00
2023-05-17T05:50:24.042Z,100.00
2023-05-17T05:53:18.156Z,100.00
2023-05-17T05:56:04.549Z,100.00
2023-05-17T05:58:49.784Z,100.00
2023-05-17T06:01:34.757Z,100.00
2023-05-17T06:04:24.652Z,100.00
2023-05-17T06:07:15.458Z,100.00
2023-05-17T06:10:00.666Z,100.00
2023-05-17T06:12:45.987Z,100.00
2023-05-17T06:15:31.454Z,100.00
2023-05-17T06:18:16.851Z,100.00
2023-05-17T06:21:01.994Z,100.00
2023-05-17T06:23:47.250Z,100.00
2023-05-17T06:26:32.532Z,100.00
2023-05-17T06:29:17.965Z,100.00
2023-05-17T06:32:04.761Z,100.00
2023-05-17T06:34:50.578Z,100.00
2023-05-17T06:37:35.636Z,100.00
2023-05-17T06:40:20.981Z,100.00
2023-05-17T06:43:06.382Z,100.00
2023-05-17T06:45:51.485Z,100.00
2023-05-17T06:48:36.921Z,100.00
2023-05-17T06:51:22.189Z,100.00
2023-05-17T06:54:07.348Z,100.00
2023-05-17T06:56:52.365Z,100.00
2023-05-17T06:59:37.464Z,100.00
2023-05-17T07:02:22.823Z,100.00
2023-05-17T07:05:10.666Z,100.00
2023-05-17T07:07:56.018Z,100.00
2023-05-17T07:10:41.060Z,100.00
2023-05-17T07:13:25.910Z,99.08
2023-05-17T07:16:11.137Z,98.58
2023-05-17T07:18:56.511Z,98.11
2023-05-17T07:21:41.848Z,95.42
2023-05-17T07:24:26.868Z,93.19
2023-05-17T07:27:12.573Z,93.24
2023-05-17T07:29:57.533Z,93.28
2023-05-17T07:32:42.656Z,93.77
2023-05-17T07:35:28.235Z,93.97
2023-05-17T07:38:13.733Z,93.32
2023-05-17T07:40:58.900Z,92.16
2023-05-17T07:43:44.322Z,91.76
2023-05-17T07:46:29.580Z,91.03
2023-05-17T07:49:15.092Z,90.22
2023-05-17T07:52:00.299Z,89.95
2023-05-17T07:54:45.461Z,88.94
2023-05-17T07:57:30.460Z,88.27
2023-05-17T08:00:19.138Z,87.77
2023-05-17T08:03:04.340Z,85.80
2023-05-17T08:05:49.540Z,85.10
2023-05-17T08:08:34.875Z,84.71
2023-05-17T08:11:19.946Z,83.77
2023-05-17T08:14:05.547Z,83.29
2023-05-17T08:16:51.801Z,83.86
2023-05-17T08:19:37.259Z,82.93
2023-05-17T08:22:22.303Z,82.21
2023-05-17T08:25:07.557Z,81.92
2023-05-17T08:27:52.770Z,81.78
2023-05-17T08:30:38.179Z,80.83
2023-05-17T08:33:25.912Z,81.21
2023-05-17T08:36:11.264Z,80.56
2023-05-17T08:38:56.298Z,79.54
2023-05-17T08:41:41.701Z,77.94
2023-05-17T08:44:28.529Z,77.43
2023-05-17T08:47:25.960Z,76.89
2023-05-17T08:50:12.655Z,76.46
2023-05-17T08:52:58.625Z,75.87
2023-05-17T08:55:48.919Z,75.03
2023-05-17T08:58:52.432Z,74.49
2023-05-17T09:01:43.760Z,72.74
2023-05-17T09:04:30.953Z,73.83
2023-05-17T09:07:17.342Z,72.99
2023-05-17T09:10:05.594Z,71.53
2023-05-17T09:12:50.730Z,70.95
2023-05-17T09:15:37.923Z,71.00
2023-05-17T09:18:32.543Z,70.42
2023-05-17T09:21:17.856Z,70.18
2023-05-17T09:24:07.193Z,70.41
2023-05-17T09:26:53.803Z,69.93
2023-05-17T09:29:39.319Z,69.03
2023-05-17T09:32:28.521Z,66.34
2023-05-17T09:35:14.005Z,64.59
2023-05-17T09:38:06.108Z,64.35
2023-05-17T09:40:51.325Z,62.80
2023-05-17T09:43:37.107Z,62.11
2023-05-17T09:46:22.002Z,61.84
2023-05-17T09:49:09.378Z,61.01
2023-05-17T09:51:55.086Z,60.07
2023-05-17T09:54:41.252Z,60.35
2023-05-17T09:57:27.969Z,61.00
2023-05-17T10:00:13.715Z,61.16
2023-05-17T10:02:59.046Z,61.98
2023-05-17T10:05:45.872Z,61.40
2023-05-17T10:08:33.353Z,60.20
2023-05-17T10:11:22.883Z,59.23
2023-05-17T10:14:13.184Z,60.01
2023-05-17T10:16:59.036Z,60.13
2023-05-17T10:19:44.497Z,60.17
2023-05-17T10:22:30.301Z,60.48
2023-05-17T10:25:16.005Z,59.84
2023-05-17T10:28:01.387Z,60.83
2023-05-17T10:30:47.708Z,60.65
2023-05-17T10:33:33.297Z,60.61
2023-05-17T10:36:19.730Z,60.68
2023-05-17T10:39:09.735Z,59.66
2023-05-17T10:42:07.222Z,59.10
2023-05-17T10:45:01.574Z,56.59
2023-05-17T10:47:47.195Z,56.36
2023-05-17T10:50:32.555Z,54.73
2023-05-17T10:53:17.472Z,53.92
2023-05-17T10:56:02.535Z,53.85
2023-05-17T10:58:47.887Z,52.62
2023-05-17T11:01:52.625Z,51.59
2023-05-17T11:04:38.922Z,49.34
2023-05-17T11:07:27.282Z,48.92
2023-05-17T11:10:14.158Z,50.02
2023-05-17T11:12:59.627Z,50.03
2023-05-17T11:15:44.885Z,50.76
2023-05-17T11:18:46.296Z,49.75
2023-05-17T11:21:31.843Z,48.29
2023-05-17T11:24:27.246Z,47.70
2023-05-17T11:27:13.841Z,46.96
2023-05-17T11:30:08.080Z,46.77
2023-05-17T11:32:58.576Z,48.01
2023-05-17T11:35:44.748Z,47.71
2023-05-17T11:38:32.479Z,46.59
2023-05-17T11:41:26.883Z,47.34
2023-05-17T11:44:13.397Z,48.23
2023-05-17T11:47:03.816Z,46.29
2023-05-17T11:49:53.718Z,45.75
2023-05-17T11:52:40.606Z,45.00
2023-05-17T11:55:26.407Z,45.07
2023-05-17T11:58:13.894Z,44.67
2023-05-17T12:00:59.132Z,42.15
2023-05-17T12:03:44.585Z,40.90
2023-05-17T12:06:30.276Z,40.31
2023-05-17T12:09:17.658Z,39.78
2023-05-17T12:12:04.668Z,39.61
2023-05-17T12:14:50.746Z,40.17
2023-05-17T12:17:42.907Z,40.67
2023-05-17T12:20:29.246Z,42.01
2023-05-17T12:23:14.615Z,41.04
2023-05-17T12:26:07.656Z,40.90
2023-05-17T12:28:57.474Z,41.33
2023-05-17T12:31:50.178Z,40.73
2023-05-17T12:34:35.953Z,41.51
2023-05-17T12:37:21.064Z,41.84
2023-05-17T12:40:07.841Z,40.87
2023-05-17T12:43:01.574Z,39.75
2023-05-17T12:45:47.839Z,39.96
2023-05-17T12:48:34.380Z,41.39
2023-05-17T12:51:22.115Z,43.48
2023-05-17T12:54:07.391Z,44.55
2023-05-17T12:56:52.520Z,43.92
2023-05-17T12:59:49.647Z,44.37
2023-05-17T13:02:34.921Z,44.68
2023-05-17T13:05:23.076Z,44.70
2023-05-17T13:08:21.279Z,44.94
2023-05-17T13:11:14.100Z,44.38
2023-05-17T13:13:59.256Z,44.12
2023-05-17T13:16:45.809Z,44.06
2023-05-17T13:19:31.245Z,44.01
2023-05-17T13:22:16.524Z,43.79
2023-05-17T13:25:03.153Z,43.61
2023-05-17T13:27:51.048Z,43.73
2023-05-17T13:30:38.017Z,44.28
2023-05-17T13:33:23.639Z,44.49
2023-05-17T13:36:09.256Z,44.81
2023-05-17T13:38:56.681Z,45.18
2023-05-17T13:41:41.846Z,45.59
2023-05-17T13:44:27.294Z,46.91
2023-05-17T13:47:12.392Z,46.32
2023-05-17T13:50:03.962Z,46.69
2023-05-17T13:52:49.242Z,46.59
2023-05-17T13:55:34.649Z,47.31
2023-05-17T13:58:19.853Z,47.12
2023-05-17T14:01:05.105Z,47.28
2023-05-17T14:03:50.327Z,47.51
2023-05-17T14:06:35.615Z,47.74
2023-05-17T14:09:21.547Z,47.72
2023-05-17T14:12:06.928Z,47.30
2023-05-17T14:14:52.225Z,48.04
2023-05-17T14:17:37.320Z,47.36
2023-05-17T14:20:22.585Z,47.00
2023-05-17T14:23:07.520Z,46.29
2023-05-17T14:25:52.465Z,45.52
2023-05-17T14:28:38.990Z,46.14
2023-05-17T14:31:24.295Z,46.66
2023-05-17T14:34:09.665Z,45.18
2023-05-17T14:36:54.935Z,45.28
2023-05-17T14:39:39.780Z,43.37
2023-05-17T14:42:25.792Z,43.08
2023-05-17T14:45:11.149Z,43.30
2023-05-17T14:47:56.293Z,41.96
2023-05-17T14:50:41.748Z,42.62
2023-05-17T14:53:29.740Z,44.20
2023-05-17T14:56:15.297Z,44.66
2023-05-17T14:59:00.390Z,43.92
2023-05-17T15:01:45.421Z,45.76
2023-05-17T15:04:30.842Z,46.50
2023-05-17T15:07:17.344Z,47.56
2023-05-17T15:10:05.837Z,48.97
2023-05-17T15:12:52.334Z,49.70
2023-05-17T15:15:38.394Z,50.55
2023-05-17T15:18:23.955Z,51.85
2023-05-17T15:21:10.258Z,51.84
2023-05-17T15:23:55.336Z,52.16
2023-05-17T15:26:40.529Z,53.01
2023-05-17T15:29:25.797Z,53.98
2023-05-17T15:32:11.209Z,54.95
2023-05-17T15:34:56.367Z,55.33
2023-05-17T15:37:41.446Z,56.02
2023-05-17T15:40:26.836Z,56.64
2023-05-17T15:43:11.941Z,57.12
2023-05-17T15:45:56.853Z,57.69
2023-05-17T15:48:42.105Z,58.12
2023-05-17T15:51:27.400Z,58.51
2023-05-17T15:54:12.544Z,58.83
2023-05-17T15:56:57.755Z,59.27
2023-05-17T15:59:42.722Z,60.09
2023-05-17T16:02:27.961Z,60.62
2023-05-17T16:05:13.253Z,61.33
2023-05-17T16:07:58.080Z,61.43
2023-05-17T16:10:43.347Z,61.26
2023-05-17T16:13:28.466Z,61.74
2023-05-17T16:16:14.569Z,61.76
2023-05-17T16:19:01.114Z,62.20
2023-05-17T16:21:49.238Z,62.44
2023-05-17T16:24:46.817Z,62.21
2023-05-17T16:27:32.030Z,62.56
2023-05-17T16:30:18.347Z,62.28
2023-05-17T16:33:03.748Z,61.84
2023-05-17T16:35:50.067Z,62.28
2023-05-17T16:38:35.319Z,62.24
2023-05-17T16:41:21.248Z,61.42
2023-05-17T16:44:06.285Z,61.47
2023-05-17T16:46:51.772Z,61.75
2023-05-17T16:49:37.221Z,61.57
2023-05-17T16:52:22.918Z,60.55
2023-05-17T16:55:09.357Z,60.44
2023-05-17T16:57:54.307Z,60.51
2023-05-17T17:00:39.383Z,60.62
2023-05-17T17:03:24.614Z,60.92
2023-05-17T17:06:09.737Z,60.65
2023-05-17T17:08:55.060Z,61.66
2023-05-17T17:11:40.185Z,61.28
2023-05-17T17:14:26.052Z,61.61
2023-05-17T17:17:11.343Z,61.85
2023-05-17T17:19:56.584Z,62.17
2023-05-17T17:22:41.672Z,62.03
2023-05-17T17:25:26.992Z,62.15
2023-05-17T17:28:12.363Z,61.91
2023-05-17T17:30:58.467Z,62.73
2023-05-17T17:33:43.734Z,63.41
2023-05-17T17:36:30.345Z,63.89
2023-05-17T17:39:17.165Z,64.52
2023-05-17T17:42:02.439Z,64.05
2023-05-17T17:44:47.501Z,63.89
2023-05-17T17:47:32.387Z,63.87
2023-05-17T17:50:17.432Z,63.61
2023-05-17T17:53:02.321Z,64.39
2023-05-17T17:55:47.632Z,64.67
2023-05-17T17:58:32.654Z,64.50
2023-05-17T18:01:18.160Z,65.36
2023-05-17T18:04:05.154Z,65.30
2023-05-17T18:06:50.423Z,65.96
2023-05-17T18:09:35.824Z,66.89
2023-05-17T18:12:21.308Z,67.31
2023-05-17T18:15:06.888Z,68.16
2023-05-17T18:17:52.202Z,69.12
2023-05-17T18:20:37.241Z,69.52
2023-05-17T18:23:22.496Z,69.80
2023-05-17T18:26:07.581Z,71.03
2023-05-17T18:28:52.966Z,71.24
2023-05-17T18:31:38.085Z,72.08
2023-05-17T18:34:25.224Z,72.85
2023-05-17T18:37:10.207Z,73.08
2023-05-17T18:39:55.265Z,73.06
2023-05-17T18:42:40.606Z,73.42
2023-05-17T18:45:25.809Z,73.77
2023-05-17T18:48:10.993Z,73.97
2023-05-17T18:50:57.403Z,73.83
2023-05-17T18:53:42.826Z,73.91
2023-05-17T18:56:28.675Z,74.38
2023-05-17T18:59:13.727Z,74.43
2023-05-17T19:01:58.649Z,74.64
2023-05-17T19:04:44.089Z,75.26
2023-05-17T19:07:29.092Z,75.73
2023-05-17T19:10:14.563Z,76.64
2023-05-17T19:12:59.772Z,77.67
2023-05-17T19:15:45.012Z,78.93
2023-05-17T19:18:30.640Z,79.85
2023-05-17T19:21:15.818Z,80.47
2023-05-17T19:24:01.290Z,81.31
2023-05-17T19:26:46.546Z,81.83
2023-05-17T19:29:33.017Z,82.29
2023-05-17T19:32:19.822Z,82.60
2023-05-17T19:35:05.640Z,83.10
2023-05-17T19:37:50.591Z,83.63
2023-05-17T19:40:36.232Z,84.25
2023-05-17T19:43:21.203Z,84.61
2023-05-17T19:46:10.462Z,84.43
2023-05-17T19:48:57.241Z,83.73
2023-05-17T19:51:42.365Z,83.03
2023-05-17T19:54:30.579Z,82.07
2023-05-17T19:57:15.785Z,81.14
2023-05-17T20:00:00.754Z,80.13
2023-05-17T20:02:49.054Z,79.08
2023-05-17T20:05:34.393Z,78.20
2023-05-17T20:08:19.628Z,77.44
2023-05-17T20:11:06.572Z,76.94
2023-05-17T20:13:51.853Z,76.13
2023-05-17T20:16:37.092Z,75.64
2023-05-17T20:19:22.579Z,74.74
2023-05-17T20:22:07.831Z,73.87
2023-05-17T20:24:53.376Z,74.10
2023-05-17T20:27:38.911Z,74.25
2023-05-17T20:30:24.194Z,74.13
2023-05-17T20:33:10.632Z,72.87
2023-05-17T20:35:56.101Z,72.24
2023-05-17T20:38:43.118Z,71.72
2023-05-17T20:41:28.100Z,70.97
2023-05-17T20:44:19.528Z,70.52
2023-05-17T20:47:05.912Z,70.29
2023-05-17T20:49:51.039Z,70.04
2023-05-17T20:52:39.495Z,69.91
2023-05-17T20:55:25.140Z,69.78
2023-05-17T20:58:11.257Z,69.47
2023-05-17T21:00:57.075Z,69.07
2023-05-17T21:03:43.258Z,69.06
2023-05-17T21:06:29.707Z,68.86
2023-05-17T21:09:18.854Z,68.94
2023-05-17T21:12:04.202Z,68.99
2023-05-17T21:14:59.869Z,69.08
2023-05-17T21:17:53.180Z,68.87
2023-05-17T21:20:39.098Z,69.16
2023-05-17T21:23:24.427Z,69.13
2023-05-17T21:26:09.745Z,68.98
2023-05-17T21:28:54.764Z,69.28
2023-05-17T21:31:39.894Z,69.30
2023-05-17T21:34:25.334Z,69.60
2023-05-17T21:37:10.365Z,69.61
2023-05-17T21:39:55.698Z,69.50
2023-05-17T21:42:41.011Z,69.75
2023-05-17T21:45:26.606Z,70.03
2023-05-17T21:48:11.747Z,70.24
2023-05-17T21:50:57.328Z,70.66
2023-05-17T21:53:42.618Z,70.53
2023-05-17T21:56:27.684Z,70.76
2023-05-17T21:59:12.935Z,71.06
2023-05-17T22:01:58.420Z,71.22
2023-05-17T22:04:43.690Z,71.14
2023-05-17T22:07:28.902Z,71.54
2023-05-17T22:10:14.370Z,71.73
2023-05-17T22:13:02.082Z,72.01
2023-05-17T22:15:47.215Z,72.16
2023-05-17T22:18:32.654Z,72.17
2023-05-17T22:21:19.136Z,72.40
2023-05-17T22:24:04.063Z,72.53
2023-05-17T22:26:49.394Z,72.99
2023-05-17T22:29:34.368Z,73.32
2023-05-17T22:32:19.343Z,73.54
2023-05-17T22:35:04.993Z,74.12
2023-05-17T22:37:51.788Z,74.70
2023-05-17T22:40:36.989Z,74.98
2023-05-17T22:43:21.853Z,75.86
2023-05-17T22:46:06.833Z,76.27
2023-05-17T22:48:52.686Z,77.44
2023-05-17T22:51:38.853Z,77.65
2023-05-17T22:54:24.731Z,78.04
2023-05-17T22:57:09.671Z,79.10
2023-05-17T22:59:54.873Z,79.41
2023-05-17T23:02:39.969Z,79.91
2023-05-17T23:05:25.121Z,80.57
2023-05-17T23:08:10.206Z,81.01
2023-05-17T23:10:55.694Z,81.24
2023-05-17T23:13:41.904Z,81.38
2023-05-17T23:16:28.206Z,80.84
2023-05-17T23:19:13.690Z,80.25
2023-05-17T23:22:06.032Z,80.10
2023-05-17T23:24:51.299Z,79.84
2023-05-17T23:27:36.434Z,80.09
2023-05-17T23:30:21.869Z,80.45
2023-05-17T23:33:06.905Z,80.54
2023-05-17T23:35:53.515Z,80.28
2023-05-17T23:38:39.140Z,79.98
2023-05-17T23:41:25.424Z,80.00
2023-05-17T23:44:10.888Z,80.05
2023-05-17T23:46:56.304Z,81.05
2023-05-17T23:49:41.438Z,81.76
2023-05-17T23:52:29.854Z,81.99
2023-05-17T23:55:15.267Z,81.96
2023-05-17T23:58:00.172Z,82.31
